sensor_id;sensor_type;location;lat;lon;timestamp;P1;durP1;ratioP1;P2;durP2;ratioP2
16735;SDS011;17990;49.548;9.730;2023-04-03T00:00:38;2.77;;;1.57;;
16735;SDS011;17990;49.548;9.730;2023-04-03T00:03:06;2.80;;;1.30;;
16735;SDS011;17990;49.548;9.730;2023-04-03T00:05:33;2.30;;;1.30;;
16735;SDS011;17990;49.548;9.730;2023-04-03T00:08:02;2.20;;;1.40;;
16735;SDS011;17990;49.548;9.730;2023-04-03T00:10:32;3.63;;;1.57;;
16735;SDS011;17990;49.548;9.730;2023-04-03T00:13:00;1.90;;;1.50;;
16735;SDS011;17990;49.548;9.730;2023-04-03T00:15:27;3.40;;;1.30;;
16735;SDS011;17990;49.548;9.730;2023-04-03T00:17:54;1.40;;;1.23;;
16735;SDS011;17990;49.548;9.730;2023-04-03T00:20:22;4.97;;;1.97;;
16735;SDS011;17990;49.548;9.730;2023-04-03T00:22:49;4.17;;;1.60;;
16735;SDS011;17990;49.548;9.730;2023-04-03T00:25:18;4.03;;;1.63;;
16735;SDS011;17990;49.548;9.730;2023-04-03T00:27:45;2.17;;;1.33;;
16735;SDS011;17990;49.548;9.730;2023-04-03T00:30:13;3.87;;;1.57;;
16735;SDS011;17990;49.548;9.730;2023-04-03T00:32:42;1.87;;;1.40;;
16735;SDS011;17990;49.548;9.730;2023-04-03T00:35:09;3.70;;;1.30;;
16735;SDS011;17990;49.548;9.730;2023-04-03T00:37:36;3.37;;;1.60;;
16735;SDS011;17990;49.548;9.730;2023-04-03T00:40:04;1.97;;;1.47;;
16735;SDS011;17990;49.548;9.730;2023-04-03T00:42:35;2.47;;;1.50;;
16735;SDS011;17990;49.548;9.730;2023-04-03T00:47:54;5.67;;;1.60;;
16735;SDS011;17990;49.548;9.730;2023-04-03T00:50:24;3.70;;;1.57;;
16735;SDS011;17990;49.548;9.730;2023-04-03T00:52:52;4.43;;;1.60;;
16735;SDS011;17990;49.548;9.730;2023-04-03T00:55:20;4.53;;;1.60;;
16735;SDS011;17990;49.548;9.730;2023-04-03T00:57:49;4.70;;;1.63;;
16735;SDS011;17990;49.548;9.730;2023-04-03T01:00:17;2.73;;;1.47;;
16735;SDS011;17990;49.548;9.730;2023-04-03T01:02:47;3.37;;;1.40;;
16735;SDS011;17990;49.548;9.730;2023-04-03T01:05:14;5.23;;;1.87;;
16735;SDS011;17990;49.548;9.730;2023-04-03T01:07:43;3.33;;;1.70;;
16735;SDS011;17990;49.548;9.730;2023-04-03T01:10:12;3.80;;;1.83;;
16735;SDS011;17990;49.548;9.730;2023-04-03T01:12:42;2.27;;;1.50;;
16735;SDS011;17990;49.548;9.730;2023-04-03T01:15:13;2.63;;;1.70;;
16735;SDS011;17990;49.548;9.730;2023-04-03T01:17:43;4.33;;;1.90;;
16735;SDS011;17990;49.548;9.730;2023-04-03T01:23:15;2.50;;;1.50;;
16735;SDS011;17990;49.548;9.730;2023-04-03T01:25:52;2.80;;;1.70;;
16735;SDS011;17990;49.548;9.730;2023-04-03T01:28:21;2.30;;;1.47;;
16735;SDS011;17990;49.548;9.730;2023-04-03T01:30:53;2.67;;;1.60;;
16735;SDS011;17990;49.548;9.730;2023-04-03T01:33:26;2.20;;;1.47;;
16735;SDS011;17990;49.548;9.730;2023-04-03T01:35:54;5.10;;;2.10;;
16735;SDS011;17990;49.548;9.730;2023-04-03T01:38:21;2.70;;;1.73;;
16735;SDS011;17990;49.548;9.730;2023-04-03T01:40:48;3.87;;;1.90;;
16735;SDS011;17990;49.548;9.730;2023-04-03T01:43:15;4.97;;;2.00;;
16735;SDS011;17990;49.548;9.730;2023-04-03T01:45:42;6.97;;;2.30;;
16735;SDS011;17990;49.548;9.730;2023-04-03T01:48:11;4.17;;;1.97;;
16735;SDS011;17990;49.548;9.730;2023-04-03T01:50:39;3.73;;;2.00;;
16735;SDS011;17990;49.548;9.730;2023-04-03T01:53:08;5.23;;;2.37;;
16735;SDS011;17990;49.548;9.730;2023-04-03T01:55:35;3.23;;;2.17;;
16735;SDS011;17990;49.548;9.730;2023-04-03T01:58:02;3.57;;;2.20;;
16735;SDS011;17990;49.548;9.730;2023-04-03T02:00:30;4.37;;;2.23;;
16735;SDS011;17990;49.548;9.730;2023-04-03T02:02:57;3.30;;;2.00;;
16735;SDS011;17990;49.548;9.730;2023-04-03T02:05:24;3.33;;;2.10;;
16735;SDS011;17990;49.548;9.730;2023-04-03T02:07:53;3.77;;;2.20;;
16735;SDS011;17990;49.548;9.730;2023-04-03T02:10:20;4.90;;;2.53;;
16735;SDS011;17990;49.548;9.730;2023-04-03T02:12:47;5.70;;;2.37;;
16735;SDS011;17990;49.548;9.730;2023-04-03T02:15:14;6.27;;;2.27;;
16735;SDS011;17990;49.548;9.730;2023-04-03T02:17:42;5.70;;;2.40;;
16735;SDS011;17990;49.548;9.730;2023-04-03T02:20:09;3.50;;;2.60;;
16735;SDS011;17990;49.548;9.730;2023-04-03T02:22:36;6.23;;;2.53;;
16735;SDS011;17990;49.548;9.730;2023-04-03T02:25:05;3.67;;;2.17;;
16735;SDS011;17990;49.548;9.730;2023-04-03T02:27:33;4.53;;;2.13;;
16735;SDS011;17990;49.548;9.730;2023-04-03T02:30:00;3.43;;;2.20;;
16735;SDS011;17990;49.548;9.730;2023-04-03T02:32:27;5.40;;;2.03;;
16735;SDS011;17990;49.548;9.730;2023-04-03T02:34:55;3.10;;;1.90;;
16735;SDS011;17990;49.548;9.730;2023-04-03T02:37:22;5.80;;;2.60;;
16735;SDS011;17990;49.548;9.730;2023-04-03T02:39:49;5.27;;;2.50;;
16735;SDS011;17990;49.548;9.730;2023-04-03T02:42:18;3.40;;;2.03;;
16735;SDS011;17990;49.548;9.730;2023-04-03T02:44:45;3.97;;;2.20;;
16735;SDS011;17990;49.548;9.730;2023-04-03T02:47:13;3.50;;;2.70;;
16735;SDS011;17990;49.548;9.730;2023-04-03T02:49:40;2.73;;;2.00;;
16735;SDS011;17990;49.548;9.730;2023-04-03T02:52:10;2.80;;;2.10;;
16735;SDS011;17990;49.548;9.730;2023-04-03T02:54:38;6.97;;;2.40;;
16735;SDS011;17990;49.548;9.730;2023-04-03T02:57:05;2.63;;;1.83;;
16735;SDS011;17990;49.548;9.730;2023-04-03T02:59:35;4.80;;;2.03;;
16735;SDS011;17990;49.548;9.730;2023-04-03T03:02:05;4.43;;;2.10;;
16735;SDS011;17990;49.548;9.730;2023-04-03T03:04:33;3.90;;;2.10;;
16735;SDS011;17990;49.548;9.730;2023-04-03T03:07:00;4.17;;;2.40;;
16735;SDS011;17990;49.548;9.730;2023-04-03T03:09:27;4.03;;;2.30;;
16735;SDS011;17990;49.548;9.730;2023-04-03T03:11:55;4.87;;;2.27;;
16735;SDS011;17990;49.548;9.730;2023-04-03T03:14:22;6.43;;;2.47;;
16735;SDS011;17990;49.548;9.730;2023-04-03T03:16:51;3.77;;;2.40;;
16735;SDS011;17990;49.548;9.730;2023-04-03T03:19:18;5.70;;;2.30;;
16735;SDS011;17990;49.548;9.730;2023-04-03T03:21:45;3.30;;;2.30;;
16735;SDS011;17990;49.548;9.730;2023-04-03T03:24:12;8.27;;;2.70;;
16735;SDS011;17990;49.548;9.730;2023-04-03T03:26:40;4.93;;;2.97;;
16735;SDS011;17990;49.548;9.730;2023-04-03T03:29:08;3.17;;;2.40;;
16735;SDS011;17990;49.548;9.730;2023-04-03T03:31:35;3.13;;;2.27;;
16735;SDS011;17990;49.548;9.730;2023-04-03T03:34:03;3.30;;;2.20;;
16735;SDS011;17990;49.548;9.730;2023-04-03T03:36:31;6.37;;;2.70;;
16735;SDS011;17990;49.548;9.730;2023-04-03T03:38:58;4.57;;;2.30;;
16735;SDS011;17990;49.548;9.730;2023-04-03T03:41:25;3.00;;;2.17;;
16735;SDS011;17990;49.548;9.730;2023-04-03T03:43:52;4.37;;;2.10;;
16735;SDS011;17990;49.548;9.730;2023-04-03T03:46:19;3.83;;;2.40;;
16735;SDS011;17990;49.548;9.730;2023-04-03T03:48:46;6.33;;;3.20;;
16735;SDS011;17990;49.548;9.730;2023-04-03T03:51:15;5.23;;;3.27;;
16735;SDS011;17990;49.548;9.730;2023-04-03T03:53:42;5.30;;;2.87;;
16735;SDS011;17990;49.548;9.730;2023-04-03T03:56:10;4.53;;;2.57;;
16735;SDS011;17990;49.548;9.730;2023-04-03T03:58:37;7.97;;;3.10;;
16735;SDS011;17990;49.548;9.730;2023-04-03T04:01:05;2.93;;;2.30;;
16735;SDS011;17990;49.548;9.730;2023-04-03T04:03:33;3.17;;;2.20;;
16735;SDS011;17990;49.548;9.730;2023-04-03T04:06:00;6.00;;;2.47;;
16735;SDS011;17990;49.548;9.730;2023-04-03T04:08:29;4.73;;;2.50;;
16735;SDS011;17990;49.548;9.730;2023-04-03T04:10:56;4.07;;;2.90;;
16735;SDS011;17990;49.548;9.730;2023-04-03T04:13:23;3.93;;;2.67;;
16735;SDS011;17990;49.548;9.730;2023-04-03T04:15:51;4.13;;;2.60;;
16735;SDS011;17990;49.548;9.730;2023-04-03T04:18:18;3.93;;;2.87;;
16735;SDS011;17990;49.548;9.730;2023-04-03T04:20:47;6.27;;;2.70;;
16735;SDS011;17990;49.548;9.730;2023-04-03T04:23:15;3.27;;;2.73;;
16735;SDS011;17990;49.548;9.730;2023-04-03T04:25:45;3.93;;;2.73;;
16735;SDS011;17990;49.548;9.730;2023-04-03T04:28:12;5.07;;;2.70;;
16735;SDS011;17990;49.548;9.730;2023-04-03T04:30:40;6.63;;;3.23;;
16735;SDS011;17990;49.548;9.730;2023-04-03T04:33:07;6.17;;;2.87;;
16735;SDS011;17990;49.548;9.730;2023-04-03T04:35:34;3.90;;;2.70;;
16735;SDS011;17990;49.548;9.730;2023-04-03T04:38:02;4.87;;;2.60;;
16735;SDS011;17990;49.548;9.730;2023-04-03T04:40:29;5.67;;;3.00;;
16735;SDS011;17990;49.548;9.730;2023-04-03T04:42:58;7.63;;;2.87;;
16735;SDS011;17990;49.548;9.730;2023-04-03T04:45:25;5.80;;;2.50;;
16735;SDS011;17990;49.548;9.730;2023-04-03T04:47:54;8.53;;;3.20;;
16735;SDS011;17990;49.548;9.730;2023-04-03T04:50:21;5.40;;;2.60;;
16735;SDS011;17990;49.548;9.730;2023-04-03T04:52:49;4.70;;;2.50;;
16735;SDS011;17990;49.548;9.730;2023-04-03T04:55:16;4.93;;;2.80;;
16735;SDS011;17990;49.548;9.730;2023-04-03T04:57:43;4.20;;;2.67;;
16735;SDS011;17990;49.548;9.730;2023-04-03T05:00:12;5.47;;;2.97;;
16735;SDS011;17990;49.548;9.730;2023-04-03T05:02:40;4.73;;;3.20;;
16735;SDS011;17990;49.548;9.730;2023-04-03T05:05:08;6.53;;;2.97;;
16735;SDS011;17990;49.548;9.730;2023-04-03T05:07:35;5.20;;;2.70;;
16735;SDS011;17990;49.548;9.730;2023-04-03T05:10:02;6.90;;;2.80;;
16735;SDS011;17990;49.548;9.730;2023-04-03T05:12:30;6.13;;;3.00;;
16735;SDS011;17990;49.548;9.730;2023-04-03T05:14:57;6.03;;;3.10;;
16735;SDS011;17990;49.548;9.730;2023-04-03T05:17:26;8.47;;;3.70;;
16735;SDS011;17990;49.548;9.730;2023-04-03T05:19:53;6.70;;;2.57;;
16735;SDS011;17990;49.548;9.730;2023-04-03T05:22:20;5.80;;;3.07;;
16735;SDS011;17990;49.548;9.730;2023-04-03T05:24:47;20.73;;;3.60;;
16735;SDS011;17990;49.548;9.730;2023-04-03T05:27:15;8.07;;;3.10;;
16735;SDS011;17990;49.548;9.730;2023-04-03T05:29:42;9.53;;;2.73;;
16735;SDS011;17990;49.548;9.730;2023-04-03T05:32:10;5.63;;;2.93;;
16735;SDS011;17990;49.548;9.730;2023-04-03T05:34:38;5.83;;;3.13;;
16735;SDS011;17990;49.548;9.730;2023-04-03T05:37:05;4.50;;;2.63;;
16735;SDS011;17990;49.548;9.730;2023-04-03T05:39:32;6.23;;;2.80;;
16735;SDS011;17990;49.548;9.730;2023-04-03T05:42:00;5.43;;;2.20;;
16735;SDS011;17990;49.548;9.730;2023-04-03T05:44:27;5.90;;;2.80;;
16735;SDS011;17990;49.548;9.730;2023-04-03T05:46:55;7.90;;;2.50;;
16735;SDS011;17990;49.548;9.730;2023-04-03T05:49:22;7.00;;;3.33;;
16735;SDS011;17990;49.548;9.730;2023-04-03T05:51:52;5.37;;;2.50;;
16735;SDS011;17990;49.548;9.730;2023-04-03T05:54:20;5.03;;;2.47;;
16735;SDS011;17990;49.548;9.730;2023-04-03T05:56:50;4.93;;;2.10;;
16735;SDS011;17990;49.548;9.730;2023-04-03T05:59:17;5.00;;;2.40;;
16735;SDS011;17990;49.548;9.730;2023-04-03T06:01:45;7.47;;;2.30;;
16735;SDS011;17990;49.548;9.730;2023-04-03T06:04:13;8.73;;;3.27;;
16735;SDS011;17990;49.548;9.730;2023-04-03T06:06:43;11.67;;;4.30;;
16735;SDS011;17990;49.548;9.730;2023-04-03T06:09:13;8.93;;;3.03;;
16735;SDS011;17990;49.548;9.730;2023-04-03T06:11:41;8.33;;;3.60;;
16735;SDS011;17990;49.548;9.730;2023-04-03T06:14:08;4.93;;;2.43;;
16735;SDS011;17990;49.548;9.730;2023-04-03T06:16:35;7.97;;;3.80;;
16735;SDS011;17990;49.548;9.730;2023-04-03T06:19:03;14.00;;;3.83;;
16735;SDS011;17990;49.548;9.730;2023-04-03T06:21:31;6.27;;;2.70;;
16735;SDS011;17990;49.548;9.730;2023-04-03T06:23:58;7.30;;;3.40;;
16735;SDS011;17990;49.548;9.730;2023-04-03T06:26:28;6.50;;;3.27;;
16735;SDS011;17990;49.548;9.730;2023-04-03T06:28:55;7.83;;;2.77;;
16735;SDS011;17990;49.548;9.730;2023-04-03T06:31:22;11.37;;;3.73;;
16735;SDS011;17990;49.548;9.730;2023-04-03T06:33:49;6.90;;;2.50;;
16735;SDS011;17990;49.548;9.730;2023-04-03T06:36:17;6.30;;;2.63;;
16735;SDS011;17990;49.548;9.730;2023-04-03T06:38:46;6.83;;;2.47;;
16735;SDS011;17990;49.548;9.730;2023-04-03T06:41:13;5.83;;;2.03;;
16735;SDS011;17990;49.548;9.730;2023-04-03T06:43:42;7.40;;;2.77;;
16735;SDS011;17990;49.548;9.730;2023-04-03T06:46:14;2.20;;;1.43;;
16735;SDS011;17990;49.548;9.730;2023-04-03T06:48:42;7.50;;;2.43;;
16735;SDS011;17990;49.548;9.730;2023-04-03T06:51:13;7.03;;;1.97;;
16735;SDS011;17990;49.548;9.730;2023-04-03T06:53:46;6.07;;;2.13;;
16735;SDS011;17990;49.548;9.730;2023-04-03T06:56:13;4.33;;;1.50;;
16735;SDS011;17990;49.548;9.730;2023-04-03T06:58:42;3.97;;;1.83;;
16735;SDS011;17990;49.548;9.730;2023-04-03T07:01:11;6.00;;;2.10;;
16735;SDS011;17990;49.548;9.730;2023-04-03T07:03:39;4.07;;;1.70;;
16735;SDS011;17990;49.548;9.730;2023-04-03T07:06:07;4.33;;;1.40;;
16735;SDS011;17990;49.548;9.730;2023-04-03T07:08:35;7.27;;;1.53;;
16735;SDS011;17990;49.548;9.730;2023-04-03T07:11:03;2.70;;;1.47;;
16735;SDS011;17990;49.548;9.730;2023-04-03T07:13:30;5.83;;;1.70;;
16735;SDS011;17990;49.548;9.730;2023-04-03T07:15:59;4.43;;;1.80;;
16735;SDS011;17990;49.548;9.730;2023-04-03T07:18:26;6.33;;;1.80;;
16735;SDS011;17990;49.548;9.730;2023-04-03T07:20:53;5.20;;;1.53;;
16735;SDS011;17990;49.548;9.730;2023-04-03T07:23:20;5.10;;;1.63;;
16735;SDS011;17990;49.548;9.730;2023-04-03T07:25:50;5.53;;;1.90;;
16735;SDS011;17990;49.548;9.730;2023-04-03T07:28:18;4.70;;;1.37;;
16735;SDS011;17990;49.548;9.730;2023-04-03T07:30:48;4.43;;;1.20;;
16735;SDS011;17990;49.548;9.730;2023-04-03T07:33:18;5.17;;;1.47;;
16735;SDS011;17990;49.548;9.730;2023-04-03T07:35:46;2.97;;;1.43;;
16735;SDS011;17990;49.548;9.730;2023-04-03T07:38:13;4.40;;;1.60;;
16735;SDS011;17990;49.548;9.730;2023-04-03T07:40:44;3.33;;;1.60;;
16735;SDS011;17990;49.548;9.730;2023-04-03T07:43:12;4.27;;;1.70;;
16735;SDS011;17990;49.548;9.730;2023-04-03T07:45:40;4.13;;;1.60;;
16735;SDS011;17990;49.548;9.730;2023-04-03T07:48:08;6.27;;;1.50;;
16735;SDS011;17990;49.548;9.730;2023-04-03T07:50:36;4.83;;;1.50;;
16735;SDS011;17990;49.548;9.730;2023-04-03T07:53:05;3.13;;;1.27;;
16735;SDS011;17990;49.548;9.730;2023-04-03T07:55:33;6.07;;;2.33;;
16735;SDS011;17990;49.548;9.730;2023-04-03T07:58:05;4.97;;;1.60;;
16735;SDS011;17990;49.548;9.730;2023-04-03T08:00:32;5.03;;;1.63;;
16735;SDS011;17990;49.548;9.730;2023-04-03T08:03:00;3.27;;;1.40;;
16735;SDS011;17990;49.548;9.730;2023-04-03T08:05:27;4.93;;;1.47;;
16735;SDS011;17990;49.548;9.730;2023-04-03T08:07:56;4.03;;;1.33;;
16735;SDS011;17990;49.548;9.730;2023-04-03T08:10:23;4.80;;;1.87;;
16735;SDS011;17990;49.548;9.730;2023-04-03T08:12:50;4.33;;;1.67;;
16735;SDS011;17990;49.548;9.730;2023-04-03T08:15:17;3.93;;;1.30;;
16735;SDS011;17990;49.548;9.730;2023-04-03T08:17:45;2.90;;;1.30;;
16735;SDS011;17990;49.548;9.730;2023-04-03T08:20:12;4.60;;;1.57;;
16735;SDS011;17990;49.548;9.730;2023-04-03T08:22:39;7.47;;;1.70;;
16735;SDS011;17990;49.548;9.730;2023-04-03T08:25:08;6.03;;;1.60;;
16735;SDS011;17990;49.548;9.730;2023-04-03T08:27:36;8.20;;;1.30;;
16735;SDS011;17990;49.548;9.730;2023-04-03T08:30:03;3.23;;;1.33;;
16735;SDS011;17990;49.548;9.730;2023-04-03T08:32:33;6.80;;;1.53;;
16735;SDS011;17990;49.548;9.730;2023-04-03T08:35:00;5.43;;;1.73;;
16735;SDS011;17990;49.548;9.730;2023-04-03T08:37:28;6.20;;;1.70;;
16735;SDS011;17990;49.548;9.730;2023-04-03T08:39:55;3.10;;;1.50;;
16735;SDS011;17990;49.548;9.730;2023-04-03T08:42:27;4.63;;;1.70;;
16735;SDS011;17990;49.548;9.730;2023-04-03T08:45:05;9.07;;;3.80;;
16735;SDS011;17990;49.548;9.730;2023-04-03T08:47:37;8.57;;;5.37;;
16735;SDS011;17990;49.548;9.730;2023-04-03T08:50:07;4.20;;;1.40;;
16735;SDS011;17990;49.548;9.730;2023-04-03T08:52:38;6.03;;;1.53;;
16735;SDS011;17990;49.548;9.730;2023-04-03T08:55:13;3.50;;;1.40;;
16735;SDS011;17990;49.548;9.730;2023-04-03T08:57:47;4.17;;;1.50;;
16735;SDS011;17990;49.548;9.730;2023-04-03T09:00:16;5.13;;;1.50;;
16735;SDS011;17990;49.548;9.730;2023-04-03T09:02:45;4.00;;;1.50;;
16735;SDS011;17990;49.548;9.730;2023-04-03T09:05:15;3.53;;;1.60;;
16735;SDS011;17990;49.548;9.730;2023-04-03T09:07:43;2.40;;;1.50;;
16735;SDS011;17990;49.548;9.730;2023-04-03T09:10:13;5.70;;;2.53;;
16735;SDS011;17990;49.548;9.730;2023-04-03T09:12:41;7.80;;;3.73;;
16735;SDS011;17990;49.548;9.730;2023-04-03T09:15:16;6.57;;;1.90;;
16735;SDS011;17990;49.548;9.730;2023-04-03T09:17:47;5.37;;;2.67;;
16735;SDS011;17990;49.548;9.730;2023-04-03T09:20:25;4.80;;;1.53;;
16735;SDS011;17990;49.548;9.730;2023-04-03T09:22:56;3.40;;;1.30;;
16735;SDS011;17990;49.548;9.730;2023-04-03T09:25:24;3.00;;;1.80;;
16735;SDS011;17990;49.548;9.730;2023-04-03T09:27:54;4.87;;;1.80;;
16735;SDS011;17990;49.548;9.730;2023-04-03T09:30:24;3.43;;;1.60;;
16735;SDS011;17990;49.548;9.730;2023-04-03T09:32:52;6.30;;;1.90;;
16735;SDS011;17990;49.548;9.730;2023-04-03T09:35:21;6.40;;;2.57;;
16735;SDS011;17990;49.548;9.730;2023-04-03T09:37:51;4.63;;;1.80;;
16735;SDS011;17990;49.548;9.730;2023-04-03T09:40:27;3.03;;;1.60;;
16735;SDS011;17990;49.548;9.730;2023-04-03T09:42:58;5.87;;;2.10;;
16735;SDS011;17990;49.548;9.730;2023-04-03T09:45:28;4.17;;;1.70;;
16735;SDS011;17990;49.548;9.730;2023-04-03T09:48:07;4.17;;;1.50;;
16735;SDS011;17990;49.548;9.730;2023-04-03T09:50:38;4.70;;;1.60;;
16735;SDS011;17990;49.548;9.730;2023-04-03T09:53:25;4.20;;;1.70;;
16735;SDS011;17990;49.548;9.730;2023-04-03T09:55:54;4.30;;;1.73;;
16735;SDS011;17990;49.548;9.730;2023-04-03T09:58:26;3.57;;;1.40;;
16735;SDS011;17990;49.548;9.730;2023-04-03T10:00:55;3.70;;;1.80;;
16735;SDS011;17990;49.548;9.730;2023-04-03T10:03:24;3.07;;;1.53;;
16735;SDS011;17990;49.548;9.730;2023-04-03T10:05:53;3.40;;;1.47;;
16735;SDS011;17990;49.548;9.730;2023-04-03T10:08:23;2.87;;;1.50;;
16735;SDS011;17990;49.548;9.730;2023-04-03T10:11:06;7.53;;;2.17;;
16735;SDS011;17990;49.548;9.730;2023-04-03T10:13:55;3.07;;;1.30;;
16735;SDS011;17990;49.548;9.730;2023-04-03T10:16:27;2.80;;;1.40;;
16735;SDS011;17990;49.548;9.730;2023-04-03T10:19:14;5.13;;;1.60;;
16735;SDS011;17990;49.548;9.730;2023-04-03T10:21:52;6.70;;;1.50;;
16735;SDS011;17990;49.548;9.730;2023-04-03T10:24:23;5.17;;;1.43;;
16735;SDS011;17990;49.548;9.730;2023-04-03T10:26:56;3.90;;;1.60;;
16735;SDS011;17990;49.548;9.730;2023-04-03T10:29:31;3.87;;;1.50;;
16735;SDS011;17990;49.548;9.730;2023-04-03T10:32:08;4.30;;;1.47;;
16735;SDS011;17990;49.548;9.730;2023-04-03T10:34:45;3.57;;;1.60;;
16735;SDS011;17990;49.548;9.730;2023-04-03T10:37:13;4.03;;;1.90;;
16735;SDS011;17990;49.548;9.730;2023-04-03T10:39:46;8.80;;;1.90;;
16735;SDS011;17990;49.548;9.730;2023-04-03T10:42:20;4.87;;;1.27;;
16735;SDS011;17990;49.548;9.730;2023-04-03T10:44:56;3.43;;;1.50;;
16735;SDS011;17990;49.548;9.730;2023-04-03T10:47:44;5.87;;;2.33;;
16735;SDS011;17990;49.548;9.730;2023-04-03T10:50:30;3.23;;;1.53;;
16735;SDS011;17990;49.548;9.730;2023-04-03T10:53:04;3.03;;;1.53;;
16735;SDS011;17990;49.548;9.730;2023-04-03T10:55:35;4.87;;;1.40;;
16735;SDS011;17990;49.548;9.730;2023-04-03T10:58:05;3.07;;;1.67;;
16735;SDS011;17990;49.548;9.730;2023-04-03T11:00:35;2.10;;;1.13;;
16735;SDS011;17990;49.548;9.730;2023-04-03T11:03:06;4.47;;;1.83;;
16735;SDS011;17990;49.548;9.730;2023-04-03T11:05:39;8.20;;;3.80;;
16735;SDS011;17990;49.548;9.730;2023-04-03T11:08:10;6.97;;;2.10;;
16735;SDS011;17990;49.548;9.730;2023-04-03T11:10:42;6.20;;;1.83;;
16735;SDS011;17990;49.548;9.730;2023-04-03T11:13:11;7.77;;;2.53;;
16735;SDS011;17990;49.548;9.730;2023-04-03T11:15:39;5.63;;;1.90;;
16735;SDS011;17990;49.548;9.730;2023-04-03T11:18:10;3.63;;;1.50;;
16735;SDS011;17990;49.548;9.730;2023-04-03T11:20:40;5.53;;;1.53;;
16735;SDS011;17990;49.548;9.730;2023-04-03T11:23:12;3.77;;;1.20;;
16735;SDS011;17990;49.548;9.730;2023-04-03T11:25:45;2.93;;;1.50;;
16735;SDS011;17990;49.548;9.730;2023-04-03T11:28:17;3.63;;;1.43;;
16735;SDS011;17990;49.548;9.730;2023-04-03T11:30:46;4.47;;;1.10;;
16735;SDS011;17990;49.548;9.730;2023-04-03T11:33:21;1.67;;;1.10;;
16735;SDS011;17990;49.548;9.730;2023-04-03T11:36:04;3.73;;;1.23;;
16735;SDS011;17990;49.548;9.730;2023-04-03T11:38:33;2.83;;;1.43;;
16735;SDS011;17990;49.548;9.730;2023-04-03T11:41:04;2.70;;;1.20;;
16735;SDS011;17990;49.548;9.730;2023-04-03T11:43:33;2.83;;;1.20;;
16735;SDS011;17990;49.548;9.730;2023-04-03T11:46:03;3.23;;;1.30;;
16735;SDS011;17990;49.548;9.730;2023-04-03T11:48:47;4.03;;;1.30;;
16735;SDS011;17990;49.548;9.730;2023-04-03T11:51:37;2.53;;;1.20;;
16735;SDS011;17990;49.548;9.730;2023-04-03T12:03:32;3.87;;;1.07;;
16735;SDS011;17990;49.548;9.730;2023-04-03T12:09:23;2.83;;;1.50;;
16735;SDS011;17990;49.548;9.730;2023-04-03T12:11:56;2.23;;;1.20;;
16735;SDS011;17990;49.548;9.730;2023-04-03T12:14:25;5.70;;;1.60;;
16735;SDS011;17990;49.548;9.730;2023-04-03T12:16:54;3.83;;;1.50;;
16735;SDS011;17990;49.548;9.730;2023-04-03T12:19:30;5.10;;;1.30;;
16735;SDS011;17990;49.548;9.730;2023-04-03T12:22:12;3.53;;;1.50;;
16735;SDS011;17990;49.548;9.730;2023-04-03T12:24:42;6.23;;;1.60;;
16735;SDS011;17990;49.548;9.730;2023-04-03T12:30:19;3.33;;;1.60;;
16735;SDS011;17990;49.548;9.730;2023-04-03T12:32:51;5.07;;;2.47;;
16735;SDS011;17990;49.548;9.730;2023-04-03T12:35:24;2.73;;;1.40;;
16735;SDS011;17990;49.548;9.730;2023-04-03T12:41:07;4.20;;;2.20;;
16735;SDS011;17990;49.548;9.730;2023-04-03T12:43:49;2.10;;;1.10;;
16735;SDS011;17990;49.548;9.730;2023-04-03T12:46:33;6.10;;;1.97;;
16735;SDS011;17990;49.548;9.730;2023-04-03T12:49:10;3.10;;;1.17;;
16735;SDS011;17990;49.548;9.730;2023-04-03T12:51:44;4.57;;;2.00;;
16735;SDS011;17990;49.548;9.730;2023-04-03T12:54:13;2.80;;;1.47;;
16735;SDS011;17990;49.548;9.730;2023-04-03T12:56:44;2.27;;;1.07;;
16735;SDS011;17990;49.548;9.730;2023-04-03T12:59:15;3.33;;;2.27;;
16735;SDS011;17990;49.548;9.730;2023-04-03T13:01:52;2.67;;;1.30;;
16735;SDS011;17990;49.548;9.730;2023-04-03T13:04:20;2.97;;;1.00;;
16735;SDS011;17990;49.548;9.730;2023-04-03T13:06:47;4.23;;;2.17;;
16735;SDS011;17990;49.548;9.730;2023-04-03T13:09:19;3.80;;;1.30;;
16735;SDS011;17990;49.548;9.730;2023-04-03T13:11:49;4.73;;;2.37;;
16735;SDS011;17990;49.548;9.730;2023-04-03T13:14:18;3.30;;;1.60;;
16735;SDS011;17990;49.548;9.730;2023-04-03T13:16:53;2.33;;;1.10;;
16735;SDS011;17990;49.548;9.730;2023-04-03T13:19:22;3.60;;;1.13;;
16735;SDS011;17990;49.548;9.730;2023-04-03T13:21:51;4.23;;;1.70;;
16735;SDS011;17990;49.548;9.730;2023-04-03T13:24:23;3.90;;;1.97;;
16735;SDS011;17990;49.548;9.730;2023-04-03T13:26:52;5.33;;;2.30;;
16735;SDS011;17990;49.548;9.730;2023-04-03T13:29:21;2.33;;;0.97;;
16735;SDS011;17990;49.548;9.730;2023-04-03T13:31:52;6.90;;;2.03;;
16735;SDS011;17990;49.548;9.730;2023-04-03T13:34:21;6.20;;;1.90;;
16735;SDS011;17990;49.548;9.730;2023-04-03T13:36:55;4.43;;;2.03;;
16735;SDS011;17990;49.548;9.730;2023-04-03T13:39:24;4.43;;;2.27;;
16735;SDS011;17990;49.548;9.730;2023-04-03T13:41:55;2.13;;;1.20;;
16735;SDS011;17990;49.548;9.730;2023-04-03T13:44:26;2.50;;;1.20;;
16735;SDS011;17990;49.548;9.730;2023-04-03T13:46:56;4.57;;;1.43;;
16735;SDS011;17990;49.548;9.730;2023-04-03T13:49:29;1.93;;;1.10;;
16735;SDS011;17990;49.548;9.730;2023-04-03T13:51:58;1.67;;;0.83;;
16735;SDS011;17990;49.548;9.730;2023-04-03T13:54:29;2.70;;;0.87;;
16735;SDS011;17990;49.548;9.730;2023-04-03T13:57:00;2.13;;;1.03;;
16735;SDS011;17990;49.548;9.730;2023-04-03T13:59:29;3.50;;;1.43;;
16735;SDS011;17990;49.548;9.730;2023-04-03T14:02:09;6.03;;;1.63;;
16735;SDS011;17990;49.548;9.730;2023-04-03T14:04:51;5.17;;;1.10;;
16735;SDS011;17990;49.548;9.730;2023-04-03T14:07:23;5.20;;;1.83;;
16735;SDS011;17990;49.548;9.730;2023-04-03T14:09:50;1.90;;;0.90;;
16735;SDS011;17990;49.548;9.730;2023-04-03T14:12:21;3.00;;;1.30;;
16735;SDS011;17990;49.548;9.730;2023-04-03T14:14:52;2.57;;;1.33;;
16735;SDS011;17990;49.548;9.730;2023-04-03T14:17:22;3.90;;;1.40;;
16735;SDS011;17990;49.548;9.730;2023-04-03T14:19:53;2.73;;;1.20;;
16735;SDS011;17990;49.548;9.730;2023-04-03T14:22:21;2.23;;;1.20;;
16735;SDS011;17990;49.548;9.730;2023-04-03T14:24:50;2.97;;;1.07;;
16735;SDS011;17990;49.548;9.730;2023-04-03T14:27:20;4.03;;;1.10;;
16735;SDS011;17990;49.548;9.730;2023-04-03T14:29:50;1.97;;;1.30;;
16735;SDS011;17990;49.548;9.730;2023-04-03T14:32:21;4.53;;;1.50;;
16735;SDS011;17990;49.548;9.730;2023-04-03T14:34:49;5.33;;;1.40;;
16735;SDS011;17990;49.548;9.730;2023-04-03T14:37:18;3.93;;;1.50;;
16735;SDS011;17990;49.548;9.730;2023-04-03T14:39:48;2.10;;;1.30;;
16735;SDS011;17990;49.548;9.730;2023-04-03T14:42:17;3.70;;;1.33;;
16735;SDS011;17990;49.548;9.730;2023-04-03T14:44:47;3.90;;;1.60;;
16735;SDS011;17990;49.548;9.730;2023-04-03T14:47:15;6.53;;;2.40;;
16735;SDS011;17990;49.548;9.730;2023-04-03T14:49:44;3.73;;;1.10;;
16735;SDS011;17990;49.548;9.730;2023-04-03T14:52:16;2.23;;;1.03;;
16735;SDS011;17990;49.548;9.730;2023-04-03T14:54:45;3.27;;;1.60;;
16735;SDS011;17990;49.548;9.730;2023-04-03T14:57:12;4.33;;;1.37;;
16735;SDS011;17990;49.548;9.730;2023-04-03T14:59:42;4.33;;;1.40;;
16735;SDS011;17990;49.548;9.730;2023-04-03T15:02:23;3.13;;;1.23;;
16735;SDS011;17990;49.548;9.730;2023-04-03T15:04:53;3.37;;;1.13;;
16735;SDS011;17990;49.548;9.730;2023-04-03T15:07:20;2.83;;;0.97;;
16735;SDS011;17990;49.548;9.730;2023-04-03T15:09:48;3.03;;;1.30;;
16735;SDS011;17990;49.548;9.730;2023-04-03T15:12:16;1.80;;;0.80;;
16735;SDS011;17990;49.548;9.730;2023-04-03T15:14:44;4.73;;;1.43;;
16735;SDS011;17990;49.548;9.730;2023-04-03T15:17:13;4.27;;;1.77;;
16735;SDS011;17990;49.548;9.730;2023-04-03T15:19:42;1.70;;;0.90;;
16735;SDS011;17990;49.548;9.730;2023-04-03T15:22:11;2.80;;;1.40;;
16735;SDS011;17990;49.548;9.730;2023-04-03T15:24:40;1.63;;;0.80;;
16735;SDS011;17990;49.548;9.730;2023-04-03T15:27:08;2.80;;;1.10;;